Time;durP1;ratioP1;P1;durP2;ratioP2;P2;SDS_P1;SDS_P2;PMS_P1;PMS_P2;Temp;Humidity;BMP_temperature;BMP_pressure;BME280_temperature;BME280_humidity;BME280_pressure;Samples;Min_cycle;Max_cycle;Signal;HPM_P1;HPM_P2
2021/12/31 00:00:12;;;;;;;23.15;3.13;;;13.90;99.90;;;;;;5052880;28;20193;-63
2021/12/31 00:02:37;;;;;;;21.80;2.93;;;13.80;99.90;;;;;;5052724;28;20227;-63
2021/12/31 00:05:04;;;;;;;24.27;3.20;;;13.80;99.90;;;;;;5052960;28;20161;-63
2021/12/31 00:07:30;;;;;;;24.10;2.93;;;13.90;99.90;;;;;;5052671;28;20231;-63
2021/12/31 00:10:00;;;;;;;16.43;2.70;;;13.80;99.90;;;;;;5052832;28;20633;-62
2021/12/31 00:12:28;;;;;;;20.80;3.10;;;13.80;99.90;;;;;;5052694;28;20196;-63
2021/12/31 00:14:53;;;;;;;14.47;2.83;;;13.80;99.90;;;;;;5050844;28;20204;-62
2021/12/31 00:17:19;;;;;;;22.10;3.30;;;13.80;99.90;;;;;;5052561;28;20170;-62
2021/12/31 00:19:46;;;;;;;22.27;3.10;;;13.80;99.90;;;;;;5052471;28;20173;-63
2021/12/31 00:24:58;;;;;;;17.43;2.63;;;13.80;99.90;;;;;;5052849;28;20228;-62
2021/12/31 00:27:24;;;;;;;18.47;3.20;;;13.90;99.90;;;;;;5052611;28;20220;-63
2021/12/31 00:29:50;;;;;;;18.77;2.80;;;13.80;99.90;;;;;;5049742;28;20762;-62
2021/12/31 00:32:16;;;;;;;20.75;2.78;;;13.90;99.90;;;;;;5051983;28;20311;-63
2021/12/31 00:34:41;;;;;;;21.30;3.00;;;13.90;99.90;;;;;;5051795;28;20653;-63
2021/12/31 00:37:07;;;;;;;13.57;2.57;;;13.90;99.90;;;;;;5052308;28;20248;-63
2021/12/31 00:39:33;;;;;;;13.90;2.77;;;13.90;99.90;;;;;;5052272;28;20177;-63
2021/12/31 00:41:59;;;;;;;18.50;2.60;;;14.00;99.90;;;;;;5051491;28;20188;-63
2021/12/31 00:44:25;;;;;;;24.10;2.87;;;14.00;99.90;;;;;;5052000;28;20532;-64
2021/12/31 00:46:51;;;;;;;14.57;2.93;;;13.90;99.90;;;;;;5051210;28;20181;-63
2021/12/31 00:49:17;;;;;;;12.13;2.40;;;13.90;99.90;;;;;;5051951;28;20196;-63
2021/12/31 00:51:42;;;;;;;20.13;4.00;;;13.90;99.90;;;;;;5051946;28;20180;-63
2021/12/31 00:54:08;;;;;;;17.17;2.73;;;13.90;99.90;;;;;;5051961;28;20248;-63
2021/12/31 00:56:36;;;;;;;15.97;2.57;;;13.80;99.90;;;;;;5051804;28;20675;-62
2021/12/31 00:59:01;;;;;;;19.97;3.30;;;13.80;99.90;;;;;;5051339;28;20624;-63
2021/12/31 01:01:30;;;;;;;20.73;2.90;;;13.80;99.90;;;;;;5051727;28;20272;-63
2021/12/31 01:03:56;;;;;;;16.43;3.17;;;13.80;99.90;;;;;;5051790;28;20196;-63
2021/12/31 01:06:22;;;;;;;21.70;3.40;;;13.80;99.90;;;;;;5051587;28;20173;-63
2021/12/31 01:08:48;;;;;;;12.67;2.43;;;13.80;99.90;;;;;;5051893;28;20173;-63
2021/12/31 01:11:14;;;;;;;20.57;3.70;;;13.80;99.90;;;;;;5051581;28;20177;-62
2021/12/31 01:13:55;;;;;;;18.20;3.27;;;13.70;99.90;;;;;;5051570;28;20526;-62
2021/12/31 01:16:22;;;;;;;20.20;3.17;;;13.80;99.90;;;;;;5051390;28;20216;-63
2021/12/31 01:21:18;;;;;;;18.17;3.27;;;13.80;99.90;;;;;;5051372;28;20652;-61
2021/12/31 01:23:44;;;;;;;18.13;3.00;;;13.80;99.90;;;;;;5051083;28;20177;-62
2021/12/31 01:26:10;;;;;;;18.33;3.20;;;13.80;99.90;;;;;;5050955;28;20184;-62
2021/12/31 01:28:36;;;;;;;18.80;3.13;;;13.80;99.90;;;;;;5051266;28;20255;-62
2021/12/31 01:31:03;;;;;;;18.13;3.33;;;13.80;99.90;;;;;;5051144;28;20250;-62
2021/12/31 01:33:29;;;;;;;18.27;3.00;;;13.70;99.90;;;;;;5051155;28;20165;-63
2021/12/31 01:35:56;;;;;;;19.93;3.10;;;13.70;99.90;;;;;;5051100;28;20213;-62
2021/12/31 01:38:22;;;;;;;16.37;3.00;;;13.80;99.90;;;;;;5051194;28;20172;-63
2021/12/31 01:40:49;;;;;;;16.30;3.33;;;13.70;99.90;;;;;;5050656;28;20173;-63
2021/12/31 01:43:16;;;;;;;21.70;3.50;;;13.80;99.90;;;;;;5051098;28;20174;-63
2021/12/31 01:45:53;;;;;;;18.10;3.77;;;13.70;99.90;;;;;;5051010;28;20725;-62
2021/12/31 01:48:49;;;;;;;18.40;3.40;;;13.70;99.90;;;;;;5050708;28;20171;-63
2021/12/31 01:51:08;;;;;;;25.10;3.57;;;13.70;99.90;;;;;;5050683;28;20177;-61
2021/12/31 01:53:33;;;;;;;15.20;3.00;;;13.80;99.90;;;;;;5050848;28;20169;-57
2021/12/31 01:56:01;;;;;;;23.47;4.00;;;13.80;99.90;;;;;;5050893;28;20703;-58
2021/12/31 01:58:28;;;;;;;20.73;3.30;;;13.80;99.90;;;;;;5050807;28;20522;-57
2021/12/31 02:00:54;;;;;;;17.50;3.37;;;13.80;99.90;;;;;;5051139;28;20276;-58
2021/12/31 02:03:23;;;;;;;23.83;3.97;;;13.80;99.90;;;;;;5050293;28;20181;-58
2021/12/31 02:05:49;;;;;;;20.17;3.67;;;13.80;99.90;;;;;;5050816;28;20177;-60
2021/12/31 02:08:16;;;;;;;21.30;3.23;;;13.80;99.90;;;;;;5050495;28;20702;-58
2021/12/31 02:10:42;;;;;;;20.77;3.70;;;13.80;99.90;;;;;;5050699;28;20187;-58
2021/12/31 02:13:09;;;;;;;20.00;3.80;;;13.80;99.90;;;;;;5050295;28;20378;-57
2021/12/31 02:15:35;;;;;;;25.33;4.30;;;13.80;99.90;;;;;;5050439;28;20216;-56
2021/12/31 02:18:07;;;;;;;20.40;3.87;;;13.90;99.90;;;;;;5050563;28;20212;-57
2021/12/31 02:20:36;;;;;;;20.17;3.83;;;13.90;99.90;;;;;;5050097;28;20181;-57
2021/12/31 02:23:06;;;;;;;27.20;4.20;;;13.90;99.90;;;;;;5050509;28;20184;-56
2021/12/31 02:25:35;;;;;;;24.57;4.03;;;13.90;99.90;;;;;;5050259;28;20178;-56
2021/12/31 02:28:01;;;;;;;16.67;4.03;;;13.90;99.90;;;;;;5050197;28;20231;-56
2021/12/31 02:30:29;;;;;;;22.77;3.83;;;13.80;99.90;;;;;;5050565;28;20253;-57
2021/12/31 02:32:55;;;;;;;20.90;3.47;;;13.90;99.90;;;;;;5050278;28;20220;-57
2021/12/31 02:35:21;;;;;;;16.77;3.63;;;13.90;99.90;;;;;;5049713;28;20241;-56
2021/12/31 02:37:47;;;;;;;19.97;3.67;;;13.90;99.90;;;;;;5050340;28;20169;-56
2021/12/31 02:40:15;;;;;;;15.63;3.53;;;13.80;99.90;;;;;;5050259;28;20181;-57
2021/12/31 02:42:42;;;;;;;17.73;3.50;;;13.80;99.90;;;;;;5050107;28;20181;-57
2021/12/31 02:45:09;;;;;;;19.23;4.20;;;13.80;99.90;;;;;;5050322;28;20644;-56
2021/12/31 02:47:37;;;;;;;15.23;3.60;;;13.80;99.90;;;;;;5049975;28;20540;-56
2021/12/31 02:50:05;;;;;;;25.63;4.37;;;13.80;99.90;;;;;;5050231;28;20181;-56
2021/12/31 02:52:31;;;;;;;23.03;4.20;;;13.70;99.90;;;;;;5050250;28;20556;-57
2021/12/31 02:55:00;;;;;;;27.60;4.70;;;13.70;99.90;;;;;;5050110;28;20592;-56
2021/12/31 02:57:26;;;;;;;16.63;3.83;;;13.70;99.90;;;;;;5050100;28;20185;-57
2021/12/31 02:59:52;;;;;;;14.77;3.50;;;13.70;99.90;;;;;;5050521;28;20264;-56
2021/12/31 03:02:24;;;;;;;22.23;3.40;;;13.70;99.90;;;;;;5049934;28;20580;-56
2021/12/31 03:04:52;;;;;;;17.17;3.83;;;13.70;99.90;;;;;;5051050;28;20290;-57
2021/12/31 03:07:20;;;;;;;16.53;3.70;;;13.70;99.90;;;;;;5053791;28;20655;-57
2021/12/31 03:09:47;;;;;;;20.27;3.20;;;13.60;99.90;;;;;;5054031;28;20169;-57
2021/12/31 03:12:14;;;;;;;16.20;3.10;;;13.60;99.90;;;;;;5053311;28;20213;-57
2021/12/31 03:14:44;;;;;;;16.50;3.23;;;13.50;99.90;;;;;;5053818;28;20174;-57
2021/12/31 03:17:11;;;;;;;16.87;3.00;;;13.50;99.90;;;;;;5053688;28;20636;-57
2021/12/31 03:19:37;;;;;;;19.27;3.33;;;13.50;99.90;;;;;;5053616;28;20177;-57
2021/12/31 03:22:04;;;;;;;12.13;3.30;;;13.50;99.90;;;;;;5054051;28;20208;-57
2021/12/31 03:24:30;;;;;;;17.57;3.43;;;13.50;99.90;;;;;;5053656;28;20193;-57
2021/12/31 03:26:55;;;;;;;18.40;3.30;;;13.50;99.90;;;;;;5053633;28;20223;-57
2021/12/31 03:29:22;;;;;;;22.00;3.03;;;13.50;99.90;;;;;;5053238;28;20266;-57
2021/12/31 03:31:48;;;;;;;13.13;2.77;;;13.50;99.90;;;;;;5052906;28;20252;-57
2021/12/31 03:34:14;;;;;;;18.53;3.50;;;13.50;99.90;;;;;;5053128;28;20628;-58
2021/12/31 03:36:43;;;;;;;23.77;3.73;;;13.50;99.90;;;;;;5053209;28;20236;-57
2021/12/31 03:39:10;;;;;;;15.43;2.70;;;13.50;99.90;;;;;;5053386;28;20209;-58
2021/12/31 03:41:36;;;;;;;12.27;2.53;;;13.50;99.90;;;;;;5053294;28;20180;-57
2021/12/31 03:44:04;;;;;;;16.47;2.97;;;13.50;99.90;;;;;;5053327;28;20252;-58
2021/12/31 03:46:30;;;;;;;11.70;2.80;;;13.50;99.90;;;;;;5053235;28;20256;-57
2021/12/31 03:48:56;;;;;;;16.93;3.27;;;13.50;99.90;;;;;;5051763;28;20268;-57
2021/12/31 03:51:22;;;;;;;22.30;3.43;;;13.50;99.90;;;;;;5053051;28;20629;-57
2021/12/31 03:53:48;;;;;;;19.87;3.47;;;13.60;99.90;;;;;;5052940;28;20581;-57
2021/12/31 03:56:14;;;;;;;16.57;2.87;;;13.60;99.90;;;;;;5052710;28;20211;-57
2021/12/31 03:58:40;;;;;;;15.90;3.90;;;13.60;99.90;;;;;;5052893;28;20181;-57
2021/12/31 04:01:06;;;;;;;18.97;4.00;;;13.70;99.90;;;;;;5052880;28;20595;-57
2021/12/31 04:03:31;;;;;;;23.03;3.97;;;13.70;99.90;;;;;;5052550;28;20181;-57
2021/12/31 04:05:57;;;;;;;24.40;4.13;;;13.70;99.90;;;;;;5052746;28;20185;-57
2021/12/31 04:08:23;;;;;;;21.23;4.20;;;13.70;99.90;;;;;;5052833;28;20620;-57
2021/12/31 04:10:49;;;;;;;24.80;5.20;;;13.70;99.90;;;;;;5052246;28;20675;-57
2021/12/31 04:13:15;;;;;;;30.73;4.43;;;13.80;99.90;;;;;;5052553;28;20169;-56
2021/12/31 04:15:40;;;;;;;33.83;5.37;;;13.70;99.90;;;;;;5052623;28;20213;-57
2021/12/31 04:18:06;;;;;;;28.30;4.60;;;13.70;99.90;;;;;;5052643;28;20528;-56
2021/12/31 04:23:14;;;;;;;23.90;4.27;;;13.60;99.90;;;;;;5052176;28;20643;-56
2021/12/31 04:25:41;;;;;;;26.57;5.67;;;13.50;99.90;;;;;;5052542;28;20180;-57
2021/12/31 04:28:07;;;;;;;21.90;3.87;;;13.50;99.90;;;;;;5052543;28;20251;-57
2021/12/31 04:30:33;;;;;;;28.83;4.87;;;13.40;99.90;;;;;;5052059;28;20253;-56
2021/12/31 04:33:00;;;;;;;22.97;4.23;;;13.40;99.90;;;;;;5052210;28;20307;-60
2021/12/31 04:35:26;;;;;;;25.53;5.07;;;13.40;99.90;;;;;;5052168;28;20675;-57
2021/12/31 04:37:52;;;;;;;25.70;4.40;;;13.30;99.90;;;;;;5052183;28;20177;-58
2021/12/31 04:40:18;;;;;;;22.10;4.17;;;13.30;99.90;;;;;;5052225;28;20632;-57
2021/12/31 04:42:44;;;;;;;25.53;3.93;;;13.40;99.90;;;;;;5052385;28;20556;-57
2021/12/31 04:45:12;;;;;;;20.57;4.17;;;13.30;99.90;;;;;;5052024;28;20184;-57
2021/12/31 04:47:38;;;;;;;20.20;3.60;;;13.40;99.90;;;;;;5052515;28;20173;-57
2021/12/31 04:50:06;;;;;;;19.27;4.07;;;13.40;99.90;;;;;;5051967;28;20169;-57
2021/12/31 04:52:32;;;;;;;20.73;3.40;;;13.40;99.90;;;;;;5052164;28;20189;-58
2021/12/31 04:54:58;;;;;;;25.77;4.53;;;13.50;99.90;;;;;;5052138;28;20225;-57
2021/12/31 04:57:25;;;;;;;20.33;3.83;;;13.50;99.90;;;;;;5051550;28;20204;-58
2021/12/31 04:59:51;;;;;;;22.10;3.77;;;13.60;99.90;;;;;;5051947;28;20181;-57
2021/12/31 05:02:17;;;;;;;16.57;3.33;;;13.60;99.90;;;;;;5052072;28;20327;-58
2021/12/31 05:04:43;;;;;;;18.53;4.23;;;13.60;99.90;;;;;;5052030;28;20169;-58
2021/12/31 05:07:09;;;;;;;19.37;3.03;;;13.60;99.90;;;;;;5051660;28;20196;-58
2021/12/31 05:09:36;;;;;;;21.60;3.20;;;13.60;99.90;;;;;;5051585;28;20182;-58
2021/12/31 05:12:04;;;;;;;25.50;4.00;;;13.60;99.90;;;;;;5051871;28;20193;-58
2021/12/31 05:14:30;;;;;;;25.57;4.63;;;13.60;99.90;;;;;;5051677;28;20659;-58
2021/12/31 05:16:58;;;;;;;24.03;3.53;;;13.60;99.90;;;;;;5051771;28;20254;-57
2021/12/31 05:19:24;;;;;;;27.40;4.37;;;13.60;99.90;;;;;;5051787;28;20177;-58
2021/12/31 05:21:50;;;;;;;15.33;3.80;;;13.60;99.90;;;;;;5051761;28;20288;-57
2021/12/31 05:24:16;;;;;;;20.93;3.50;;;13.60;99.90;;;;;;5051645;28;20671;-57
2021/12/31 05:26:43;;;;;;;23.10;4.40;;;13.60;99.90;;;;;;5051499;28;20711;-57
2021/12/31 05:29:09;;;;;;;23.30;3.37;;;13.40;99.90;;;;;;5051508;28;20231;-57
2021/12/31 05:31:35;;;;;;;28.40;4.37;;;13.40;99.90;;;;;;5051356;28;20679;-57
2021/12/31 05:34:01;;;;;;;27.33;5.30;;;13.40;99.90;;;;;;5051567;28;20184;-57
2021/12/31 05:36:27;;;;;;;20.63;4.13;;;13.30;99.90;;;;;;5051097;28;20221;-57
2021/12/31 05:38:52;;;;;;;20.77;3.50;;;13.30;99.90;;;;;;5051445;28;20203;-57
2021/12/31 05:41:18;;;;;;;20.70;3.80;;;13.30;99.90;;;;;;5051074;28;20181;-57
2021/12/31 05:43:44;;;;;;;21.50;3.77;;;13.20;99.90;;;;;;5051347;28;20173;-58
2021/12/31 05:46:10;;;;;;;13.57;3.13;;;13.20;99.90;;;;;;5051098;28;20579;-57
2021/12/31 05:48:36;;;;;;;16.17;3.93;;;13.20;99.90;;;;;;5050220;28;20181;-58
2021/12/31 05:51:02;;;;;;;15.50;3.20;;;13.10;99.90;;;;;;5051196;28;20169;-57
2021/12/31 05:53:28;;;;;;;19.57;3.83;;;13.10;99.90;;;;;;5050975;28;20181;-57
2021/12/31 05:55:53;;;;;;;11.37;3.13;;;13.10;99.90;;;;;;5050910;28;20564;-57
2021/12/31 05:58:19;;;;;;;18.40;2.97;;;13.10;99.90;;;;;;5051041;28;20168;-58
2021/12/31 06:00:45;;;;;;;16.33;3.30;;;13.10;99.90;;;;;;5050390;28;20582;-57
2021/12/31 06:03:11;;;;;;;15.20;3.03;;;13.10;99.90;;;;;;5051095;28;20212;-58
2021/12/31 06:05:37;;;;;;;17.43;2.80;;;13.10;99.90;;;;;;5051120;28;20632;-58
2021/12/31 06:08:03;;;;;;;12.57;2.87;;;13.00;99.90;;;;;;5050985;28;20176;-58
2021/12/31 06:10:31;;;;;;;16.57;3.33;;;13.00;99.90;;;;;;5050650;28;20176;-61
2021/12/31 06:12:58;;;;;;;12.53;3.00;;;13.00;99.90;;;;;;5048603;28;20185;-58
2021/12/31 06:15:26;;;;;;;13.07;2.93;;;13.00;99.90;;;;;;5050927;28;20216;-58
2021/12/31 06:17:52;;;;;;;8.10;2.03;;;13.00;99.90;;;;;;5050801;28;20549;-58
2021/12/31 06:20:18;;;;;;;6.80;1.90;;;13.00;99.90;;;;;;5050934;28;20177;-58
2021/12/31 06:22:44;;;;;;;9.03;2.20;;;13.00;99.90;;;;;;5050911;28;20205;-58
2021/12/31 06:25:10;;;;;;;9.97;1.87;;;13.00;99.90;;;;;;5050726;28;20192;-57
2021/12/31 06:27:36;;;;;;;9.67;2.20;;;13.10;99.90;;;;;;5050775;28;20659;-57
2021/12/31 06:30:04;;;;;;;5.70;1.60;;;13.10;99.90;;;;;;5050477;28;20197;-57
2021/12/31 06:32:30;;;;;;;6.10;1.97;;;13.10;99.90;;;;;;5050523;28;20287;-57
2021/12/31 06:34:56;;;;;;;13.63;2.37;;;13.10;99.90;;;;;;5050690;28;20193;-57
2021/12/31 06:37:21;;;;;;;10.30;2.07;;;13.10;99.90;;;;;;5050346;28;20219;-58
2021/12/31 06:39:47;;;;;;;8.07;1.50;;;13.20;99.90;;;;;;5051809;28;20570;-56
2021/12/31 06:42:13;;;;;;;8.10;2.00;;;13.30;99.90;;;;;;5054623;28;20161;-57
2021/12/31 06:44:39;;;;;;;10.20;2.07;;;13.30;99.90;;;;;;5054191;28;20188;-57
2021/12/31 06:47:06;;;;;;;4.43;1.63;;;13.30;99.90;;;;;;5054590;28;20528;-57
2021/12/31 06:49:32;;;;;;;7.43;1.77;;;13.40;99.90;;;;;;5054380;28;20250;-56
2021/12/31 06:51:58;;;;;;;7.27;1.73;;;13.40;99.90;;;;;;5054507;28;20170;-57
2021/12/31 06:54:24;;;;;;;5.13;1.77;;;13.30;99.90;;;;;;5054141;28;20695;-57
2021/12/31 06:56:50;;;;;;;10.23;2.07;;;13.40;99.90;;;;;;5054257;28;20236;-57
2021/12/31 06:59:16;;;;;;;4.80;1.70;;;13.30;99.90;;;;;;5053225;28;20177;-57
2021/12/31 07:01:42;;;;;;;7.50;2.20;;;13.30;99.90;;;;;;5054384;28;20173;-57
2021/12/31 07:04:08;;;;;;;10.03;2.20;;;13.30;99.90;;;;;;5053962;28;20172;-57
2021/12/31 07:06:34;;;;;;;9.27;1.80;;;13.30;99.90;;;;;;5054164;28;20208;-57
2021/12/31 07:08:59;;;;;;;5.90;1.40;;;13.30;99.90;;;;;;5053870;28;20184;-57
2021/12/31 07:11:25;;;;;;;9.60;2.30;;;13.40;99.90;;;;;;5054067;28;20169;-57
2021/12/31 07:13:51;;;;;;;9.23;1.90;;;13.40;99.90;;;;;;5054068;28;20590;-57
2021/12/31 07:16:18;;;;;;;4.80;1.77;;;13.30;99.90;;;;;;5053845;28;20216;-61
2021/12/31 07:18:44;;;;;;;6.30;1.53;;;13.30;99.90;;;;;;5054000;28;20192;-56
2021/12/31 07:21:10;;;;;;;4.60;1.70;;;13.30;99.90;;;;;;5053742;28;20173;-57
2021/12/31 07:23:36;;;;;;;4.73;1.40;;;13.30;99.90;;;;;;5053876;28;20158;-57
2021/12/31 07:26:02;;;;;;;5.20;1.40;;;13.40;99.90;;;;;;5053805;28;20173;-57
2021/12/31 07:28:28;;;;;;;8.20;1.67;;;13.40;99.90;;;;;;5053572;28;20525;-57
2021/12/31 07:30:55;;;;;;;3.60;1.20;;;13.40;99.90;;;;;;5053954;28;20173;-57
2021/12/31 07:33:24;;;;;;;3.50;1.10;;;13.40;99.90;;;;;;5053290;28;20300;-57
2021/12/31 07:35:52;;;;;;;3.20;1.10;;;13.40;99.90;;;;;;5053445;28;20248;-57
2021/12/31 07:38:27;;;;;;;5.33;1.17;;;13.40;99.90;;;;;;5053682;28;20223;-57
2021/12/31 07:40:53;;;;;;;3.03;0.93;;;13.40;99.90;;;;;;5053734;28;20173;-57
2021/12/31 07:43:21;;;;;;;1.80;0.63;;;13.40;99.90;;;;;;5053448;28;20664;-57
2021/12/31 07:45:47;;;;;;;3.97;1.10;;;13.40;99.90;;;;;;5053385;28;20161;-57
2021/12/31 07:48:13;;;;;;;4.53;0.90;;;13.50;99.90;;;;;;5053235;28;20624;-57
2021/12/31 07:50:39;;;;;;;2.73;0.83;;;13.50;99.90;;;;;;5052502;28;20181;-57
2021/12/31 07:53:05;;;;;;;2.70;0.80;;;13.50;99.90;;;;;;5052058;28;20555;-57
2021/12/31 07:55:31;;;;;;;4.50;1.00;;;13.40;99.90;;;;;;5051943;28;20231;-57
2021/12/31 07:57:57;;;;;;;2.43;0.80;;;13.50;99.90;;;;;;5052743;28;20188;-58
2021/12/31 08:00:23;;;;;;;3.00;0.90;;;13.50;99.90;;;;;;5052062;28;20549;-56
2021/12/31 08:02:49;;;;;;;3.77;0.90;;;13.50;99.90;;;;;;5053125;28;20181;-56
2021/12/31 08:05:15;;;;;;;1.20;0.70;;;13.40;99.90;;;;;;5053041;28;20644;-56
2021/12/31 08:07:41;;;;;;;3.40;0.90;;;13.50;99.90;;;;;;5038368;28;20276;-56
2021/12/31 08:10:07;;;;;;;5.33;0.90;;;13.50;99.90;;;;;;5033162;28;20177;-57
2021/12/31 08:12:35;;;;;;;4.30;0.70;;;13.50;99.90;;;;;;5032796;28;20196;-56
2021/12/31 08:15:03;;;;;;;4.97;0.90;;;13.50;99.90;;;;;;5032906;28;20284;-56
2021/12/31 08:17:28;;;;;;;3.23;0.80;;;13.50;99.90;;;;;;5036614;28;20648;-57
2021/12/31 08:19:54;;;;;;;2.87;0.77;;;13.60;99.90;;;;;;5052986;28;20184;-57
2021/12/31 08:22:22;;;;;;;2.00;0.90;;;13.50;99.90;;;;;;5052710;28;20616;-58
2021/12/31 08:24:48;;;;;;;3.23;0.90;;;13.60;99.90;;;;;;5052572;28;20177;-58
2021/12/31 08:27:14;;;;;;;5.70;0.90;;;13.60;99.90;;;;;;5052560;28;20670;-58
2021/12/31 08:29:40;;;;;;;5.40;0.90;;;13.60;99.90;;;;;;5052636;28;20612;-59
2021/12/31 08:32:06;;;;;;;3.37;0.80;;;13.60;99.90;;;;;;5052445;28;20232;-57
2021/12/31 08:34:32;;;;;;;5.87;0.70;;;13.60;99.90;;;;;;5052198;28;20663;-58
2021/12/31 08:36:58;;;;;;;2.83;0.83;;;13.70;99.90;;;;;;5052379;28;20209;-59
2021/12/31 08:39:25;;;;;;;5.33;0.97;;;13.70;99.90;;;;;;5052490;28;20173;-58
2021/12/31 08:41:51;;;;;;;2.80;1.03;;;13.70;99.90;;;;;;5052364;28;20179;-59
2021/12/31 08:44:17;;;;;;;4.57;1.08;;;13.70;99.90;;;;;;5052397;28;20175;-58
2021/12/31 08:46:43;;;;;;;2.20;0.83;;;13.70;99.90;;;;;;5052252;28;20537;-59
2021/12/31 08:49:09;;;;;;;3.77;0.90;;;13.70;99.90;;;;;;5052332;28;20169;-63
2021/12/31 08:51:36;;;;;;;4.03;1.10;;;13.70;99.90;;;;;;5051336;28;20550;-62
2021/12/31 08:54:03;;;;;;;5.57;0.97;;;13.70;99.90;;;;;;5051444;28;20643;-62
2021/12/31 08:56:36;;;;;;;2.80;0.87;;;13.70;99.90;;;;;;5050845;28;20224;-59
2021/12/31 08:59:03;;;;;;;7.13;1.20;;;13.70;99.90;;;;;;5051853;28;20177;-59
2021/12/31 09:01:29;;;;;;;2.88;0.82;;;13.70;99.90;;;;;;5051913;28;20177;-59
2021/12/31 09:03:55;;;;;;;6.17;1.20;;;13.70;99.90;;;;;;5051336;28;20172;-58
2021/12/31 09:06:21;;;;;;;3.93;0.90;;;13.70;99.90;;;;;;5051970;28;20264;-59
2021/12/31 09:08:47;;;;;;;4.63;1.10;;;13.70;99.90;;;;;;5051824;28;20227;-58
2021/12/31 09:11:14;;;;;;;6.73;1.50;;;13.70;99.90;;;;;;5051634;28;20697;-58
2021/12/31 09:13:42;;;;;;;4.93;1.30;;;13.70;99.90;;;;;;5051673;28;20173;-58
2021/12/31 09:16:08;;;;;;;6.90;1.13;;;13.70;99.90;;;;;;5049628;28;20287;-58
2021/12/31 09:18:34;;;;;;;7.40;1.40;;;13.70;99.90;;;;;;5047879;28;20196;-61
2021/12/31 09:21:00;;;;;;;10.60;1.45;;;13.70;99.90;;;;;;5038912;28;20309;-62
2021/12/31 09:23:31;;;;;;;11.73;1.63;;;13.60;99.90;;;;;;5045096;28;20180;-62
2021/12/31 09:25:58;;;;;;;9.67;1.70;;;13.60;99.90;;;;;;5051060;28;20291;-61
2021/12/31 09:28:25;;;;;;;8.93;1.73;;;13.60;99.90;;;;;;5051052;28;20192;-61
2021/12/31 09:30:51;;;;;;;10.43;1.77;;;13.60;99.90;;;;;;5050913;28;20184;-62
2021/12/31 09:33:17;;;;;;;10.80;1.60;;;13.60;99.90;;;;;;5049652;28;20232;-62
2021/12/31 09:35:42;;;;;;;6.23;1.47;;;13.60;99.90;;;;;;5049182;28;20686;-62
2021/12/31 09:38:09;;;;;;;8.73;2.47;;;13.60;99.90;;;;;;5051040;28;20177;-57
2021/12/31 09:40:41;;;;;;;13.27;2.00;;;13.60;99.90;;;;;;5051128;28;20165;-57
2021/12/31 09:43:11;;;;;;;6.47;1.87;;;13.50;99.90;;;;;;5050563;28;20196;-61
2021/12/31 09:45:38;;;;;;;11.23;1.97;;;13.50;99.90;;;;;;5051046;28;20192;-62
2021/12/31 09:48:08;;;;;;;14.03;2.20;;;13.50;99.90;;;;;;5051176;28;20188;-61
2021/12/31 09:50:42;;;;;;;21.20;3.10;;;13.50;99.90;;;;;;5049970;28;20264;-62
2021/12/31 09:53:10;;;;;;;11.97;2.37;;;13.60;99.90;;;;;;5050953;28;20254;-61
2021/12/31 09:55:57;;;;;;;10.37;2.00;;;13.60;99.90;;;;;;5050507;28;20232;-61
2021/12/31 09:58:25;;;;;;;9.87;2.37;;;13.50;99.90;;;;;;5050620;28;20192;-62
2021/12/31 10:00:57;;;;;;;16.67;3.30;;;14.60;99.90;;;;;;5050510;28;20173;-61
2021/12/31 10:03:26;;;;;;;10.77;2.50;;;13.60;99.90;;;;;;5050180;28;20640;-61
2021/12/31 10:05:57;;;;;;;16.40;2.67;;;13.50;99.90;;;;;;5050456;28;20200;-61
2021/12/31 10:08:38;;;;;;;15.73;2.70;;;13.50;99.90;;;;;;5050518;28;20173;-61
2021/12/31 10:11:09;;;;;;;10.30;2.37;;;13.50;99.90;;;;;;5049924;28;20269;-62
2021/12/31 10:13:37;;;;;;;14.17;2.77;;;13.50;99.90;;;;;;5050519;28;20177;-60
2021/12/31 10:16:04;;;;;;;9.47;2.10;;;13.60;99.90;;;;;;5049126;28;20220;-60
2021/12/31 10:18:38;;;;;;;18.10;3.03;;;13.60;99.90;;;;;;5049977;28;20185;-60
2021/12/31 10:21:05;;;;;;;14.50;3.33;;;13.60;99.90;;;;;;5049820;28;20189;-60
2021/12/31 10:23:36;;;;;;;13.33;2.83;;;13.50;99.90;;;;;;5048884;28;20579;-60
2021/12/31 10:26:07;;;;;;;15.00;2.67;;;13.50;99.90;;;;;;5049501;28;20169;-60
2021/12/31 10:28:33;;;;;;;17.33;2.67;;;13.60;99.90;;;;;;5050810;28;20208;-63
2021/12/31 10:31:13;;;;;;;18.43;3.23;;;13.60;99.90;;;;;;5050668;28;20231;-62
2021/12/31 10:33:44;;;;;;;22.23;3.30;;;13.50;99.90;;;;;;5050832;28;20215;-61
2021/12/31 10:36:37;;;;;;;15.27;3.10;;;13.60;99.90;;;;;;5050424;28;20216;-61
2021/12/31 10:39:22;;;;;;;20.40;3.27;;;13.50;99.90;;;;;;5050398;28;20176;-62
2021/12/31 10:42:01;;;;;;;15.67;2.57;;;13.60;99.90;;;;;;5050577;28;20197;-61
2021/12/31 10:44:40;;;;;;;20.00;3.47;;;13.60;99.90;;;;;;5050092;28;20177;-61
2021/12/31 10:47:09;;;;;;;18.83;3.17;;;13.60;99.90;;;;;;5050467;28;20252;-61
2021/12/31 10:50:05;;;;;;;17.97;3.20;;;13.60;99.90;;;;;;5050364;28;20188;-61
2021/12/31 10:52:37;;;;;;;17.90;3.30;;;13.60;99.90;;;;;;5050403;28;20165;-61
2021/12/31 10:55:22;;;;;;;14.77;3.40;;;13.60;99.90;;;;;;5050246;28;20196;-61
2021/12/31 10:57:51;;;;;;;13.63;3.00;;;13.60;99.90;;;;;;5050827;28;20177;-61
2021/12/31 11:00:19;;;;;;;20.33;3.47;;;13.60;99.90;;;;;;5050726;28;20189;-61
2021/12/31 11:02:46;;;;;;;20.43;3.37;;;13.60;99.90;;;;;;5050241;28;20169;-61
2021/12/31 11:05:14;;;;;;;24.00;3.67;;;13.60;99.90;;;;;;5050414;28;20239;-61
2021/12/31 11:07:42;;;;;;;21.37;3.47;;;13.60;99.90;;;;;;5050268;28;20252;-61
2021/12/31 11:10:10;;;;;;;19.80;3.77;;;13.70;99.90;;;;;;5050108;28;20174;-61
2021/12/31 11:12:36;;;;;;;16.80;3.33;;;13.70;99.90;;;;;;5045743;28;20172;-61
2021/12/31 11:15:04;;;;;;;23.87;3.73;;;13.80;99.90;;;;;;5039847;28;20178;-61
2021/12/31 11:17:31;;;;;;;18.80;3.78;;;13.90;99.90;;;;;;5041581;28;20606;-61
2021/12/31 11:19:58;;;;;;;16.92;3.47;;;14.00;99.90;;;;;;5050011;28;20184;-61
2021/12/31 11:22:26;;;;;;;13.43;3.40;;;14.10;99.90;;;;;;5049845;28;20180;-61
2021/12/31 11:24:52;;;;;;;22.47;3.40;;;14.10;99.90;;;;;;5048298;28;20162;-61
2021/12/31 11:27:27;;;;;;;25.13;3.72;;;14.10;99.90;;;;;;5053026;28;20188;-61
2021/12/31 11:29:54;;;;;;;18.85;3.47;;;14.10;99.90;;;;;;5053546;28;20256;-61
2021/12/31 11:32:42;;;;;;;17.98;3.20;;;14.10;99.90;;;;;;5053365;28;20814;-61
2021/12/31 11:35:33;;;;;;;17.35;3.65;;;14.10;99.90;;;;;;5053453;28;20677;-61
2021/12/31 11:38:04;;;;;;;22.02;3.97;;;14.20;99.90;;;;;;5053158;28;20192;-61
2021/12/31 11:40:35;;;;;;;21.70;4.00;;;14.20;99.90;;;;;;5053359;28;20169;-62
2021/12/31 11:43:33;;;;;;;23.13;3.90;;;14.20;99.90;;;;;;5053325;28;20177;-61
2021/12/31 11:46:12;;;;;;;18.75;3.70;;;14.30;99.90;;;;;;5040992;28;20192;-61
2021/12/31 11:48:44;;;;;;;21.92;3.25;;;14.30;99.90;;;;;;5053283;28;20165;-61
2021/12/31 11:51:11;;;;;;;18.92;3.63;;;14.40;99.90;;;;;;5053100;28;20165;-62
2021/12/31 11:53:56;;;;;;;18.60;3.33;;;14.40;99.90;;;;;;5050679;28;20239;-61
2021/12/31 11:56:37;;;;;;;17.25;2.95;;;14.40;99.90;;;;;;5051295;28;20211;-61
2021/12/31 11:59:08;;;;;;;14.95;3.10;;;14.50;99.90;;;;;;5053112;28;20218;-62
2021/12/31 12:01:37;;;;;;;14.98;2.88;;;14.50;99.90;;;;;;5052939;28;20268;-61
2021/12/31 12:04:22;;;;;;;16.65;3.05;;;14.50;99.90;;;;;;5053024;28;20264;-61
2021/12/31 12:07:17;;;;;;;16.63;2.97;;;14.50;99.90;;;;;;5052556;28;20260;-61
2021/12/31 12:09:43;;;;;;;20.23;3.30;;;14.50;99.90;;;;;;5038566;28;20536;-61
2021/12/31 12:12:13;;;;;;;18.42;3.85;;;14.60;99.90;;;;;;5051671;28;20184;-61
2021/12/31 12:14:45;;;;;;;15.38;3.38;;;14.60;99.90;;;;;;5052262;28;20383;-61
2021/12/31 12:17:13;;;;;;;18.05;3.30;;;14.60;99.90;;;;;;5052798;28;20206;-61
2021/12/31 12:19:51;;;;;;;20.45;3.13;;;14.70;99.90;;;;;;5052726;28;20182;-62
2021/12/31 12:22:37;;;;;;;24.58;4.00;;;14.70;99.90;;;;;;5052255;28;20180;-61
2021/12/31 12:25:29;;;;;;;20.50;3.65;;;14.70;99.90;;;;;;5045760;28;20586;-61
2021/12/31 12:28:02;;;;;;;16.27;2.75;;;14.80;99.90;;;;;;5050531;28;20640;-61
2021/12/31 12:30:29;;;;;;;24.95;3.85;;;14.80;99.90;;;;;;5051750;28;20184;-61
2021/12/31 12:35:43;;;;;;;22.40;3.10;;;14.80;99.90;;;;;;5051075;28;20683;-61
2021/12/31 12:38:21;;;;;;;20.05;3.15;;;14.80;99.90;;;;;;5049109;28;20169;-61
2021/12/31 12:40:57;;;;;;;22.88;3.75;;;14.80;99.90;;;;;;5045301;28;20192;-61
2021/12/31 12:43:27;;;;;;;25.05;3.63;;;14.80;99.90;;;;;;5040951;28;20170;-61
2021/12/31 12:46:01;;;;;;;16.52;3.28;;;14.80;99.90;;;;;;5039391;28;20200;-63
2021/12/31 12:48:36;;;;;;;21.65;3.70;;;14.80;99.90;;;;;;5041839;28;20248;-61
2021/12/31 12:51:11;;;;;;;19.90;3.40;;;14.80;99.90;;;;;;5040024;28;20323;-63
2021/12/31 12:53:39;;;;;;;17.30;3.17;;;14.70;99.90;;;;;;5032229;28;20260;-61